sensor_id;sensor_type;location;lat;lon;timestamp;P1;P2;P0
55549;PMS7003;41397;49.972;18.944;2022-10-26T00:00:20;30;27;18
55549;PMS7003;41397;49.972;18.944;2022-10-26T00:03:27;22;22;16
55549;PMS7003;41397;49.972;18.944;2022-10-26T00:06:28;32;26;18
55549;PMS7003;41397;49.972;18.944;2022-10-26T00:09:29;27;26;17
55549;PMS7003;41397;49.972;18.944;2022-10-26T00:12:30;27;25;16
55549;PMS7003;41397;49.972;18.944;2022-10-26T00:15:31;25;24;15
55549;PMS7003;41397;49.972;18.944;2022-10-26T00:18:34;30;25;16
55549;PMS7003;41397;49.972;18.944;2022-10-26T00:21:35;24;22;16
55549;PMS7003;41397;49.972;18.944;2022-10-26T00:24:36;21;21;15
55549;PMS7003;41397;49.972;18.944;2022-10-26T00:27:37;23;23;14
55549;PMS7003;41397;49.972;18.944;2022-10-26T00:30:41;17;17;11
55549;PMS7003;41397;49.972;18.944;2022-10-26T00:33:43;22;22;16
55549;PMS7003;41397;49.972;18.944;2022-10-26T00:36:44;32;26;16
55549;PMS7003;41397;49.972;18.944;2022-10-26T00:39:45;22;21;14
55549;PMS7003;41397;49.972;18.944;2022-10-26T00:42:49;23;23;14
55549;PMS7003;41397;49.972;18.944;2022-10-26T00:45:51;22;22;16
55549;PMS7003;41397;49.972;18.944;2022-10-26T00:49:00;19;19;14
55549;PMS7003;41397;49.972;18.944;2022-10-26T00:52:04;22;21;16
55549;PMS7003;41397;49.972;18.944;2022-10-26T00:55:08;20;20;15
55549;PMS7003;41397;49.972;18.944;2022-10-26T00:58:09;22;21;15
55549;PMS7003;41397;49.972;18.944;2022-10-26T01:01:11;20;20;14
55549;PMS7003;41397;49.972;18.944;2022-10-26T01:04:13;22;22;17
55549;PMS7003;41397;49.972;18.944;2022-10-26T01:07:15;23;22;16
55549;PMS7003;41397;49.972;18.944;2022-10-26T01:10:16;32;26;17
55549;PMS7003;41397;49.972;18.944;2022-10-26T01:13:18;31;28;19
55549;PMS7003;41397;49.972;18.944;2022-10-26T01:22:56;27;25;18
55549;PMS7003;41397;49.972;18.944;2022-10-26T01:26:07;32;26;17
55549;PMS7003;41397;49.972;18.944;2022-10-26T01:33:19;26;24;17
55549;PMS7003;41397;49.972;18.944;2022-10-26T01:42:16;36;31;21
55549;PMS7003;41397;49.972;18.944;2022-10-26T01:45:19;35;27;20
55549;PMS7003;41397;49.972;18.944;2022-10-26T01:48:20;32;28;20
55549;PMS7003;41397;49.972;18.944;2022-10-26T01:51:25;34;30;19
55549;PMS7003;41397;49.972;18.944;2022-10-26T01:54:34;36;31;21
55549;PMS7003;41397;49.972;18.944;2022-10-26T01:57:36;35;30;22
55549;PMS7003;41397;49.972;18.944;2022-10-26T02:00:38;38;33;22
55549;PMS7003;41397;49.972;18.944;2022-10-26T02:07:00;28;25;18
55549;PMS7003;41397;49.972;18.944;2022-10-26T02:13:41;32;29;20
55549;PMS7003;41397;49.972;18.944;2022-10-26T02:16:40;36;31;21
55549;PMS7003;41397;49.972;18.944;2022-10-26T02:19:53;37;31;22
55549;PMS7003;41397;49.972;18.944;2022-10-26T02:23:05;34;30;19
55549;PMS7003;41397;49.972;18.944;2022-10-26T02:26:08;37;31;21
55549;PMS7003;41397;49.972;18.944;2022-10-26T02:29:14;36;31;23
55549;PMS7003;41397;49.972;18.944;2022-10-26T02:32:18;35;30;20
55549;PMS7003;41397;49.972;18.944;2022-10-26T02:35:26;43;36;22
55549;PMS7003;41397;49.972;18.944;2022-10-26T02:38:30;38;32;21
55549;PMS7003;41397;49.972;18.944;2022-10-26T02:41:35;35;31;20
55549;PMS7003;41397;49.972;18.944;2022-10-26T02:47:51;37;29;20
55549;PMS7003;41397;49.972;18.944;2022-10-26T03:00:38;38;32;21
55549;PMS7003;41397;49.972;18.944;2022-10-26T03:03:41;38;32;21
55549;PMS7003;41397;49.972;18.944;2022-10-26T03:06:50;40;31;23
55549;PMS7003;41397;49.972;18.944;2022-10-26T03:09:57;36;31;20
55549;PMS7003;41397;49.972;18.944;2022-10-26T03:12:58;29;26;18
55549;PMS7003;41397;49.972;18.944;2022-10-26T03:15:59;36;31;21
55549;PMS7003;41397;49.972;18.944;2022-10-26T03:19:01;36;31;21
55549;PMS7003;41397;49.972;18.944;2022-10-26T03:22:05;23;22;17
55549;PMS7003;41397;49.972;18.944;2022-10-26T03:25:06;51;41;26
55549;PMS7003;41397;49.972;18.944;2022-10-26T03:28:08;41;35;22
55549;PMS7003;41397;49.972;18.944;2022-10-26T03:31:09;41;34;23
55549;PMS7003;41397;49.972;18.944;2022-10-26T03:34:13;29;27;18
55549;PMS7003;41397;49.972;18.944;2022-10-26T03:37:14;36;31;21
55549;PMS7003;41397;49.972;18.944;2022-10-26T03:40:15;32;28;19
55549;PMS7003;41397;49.972;18.944;2022-10-26T03:43:17;37;32;21
55549;PMS7003;41397;49.972;18.944;2022-10-26T03:46:21;27;25;21
55549;PMS7003;41397;49.972;18.944;2022-10-26T03:49:22;29;27;20
55549;PMS7003;41397;49.972;18.944;2022-10-26T03:52:24;42;35;21
55549;PMS7003;41397;49.972;18.944;2022-10-26T03:55:25;23;22;17
55549;PMS7003;41397;49.972;18.944;2022-10-26T03:58:29;34;30;22
55549;PMS7003;41397;49.972;18.944;2022-10-26T04:01:30;39;33;21
55549;PMS7003;41397;49.972;18.944;2022-10-26T04:04:31;36;31;20
55549;PMS7003;41397;49.972;18.944;2022-10-26T04:07:33;45;37;25
55549;PMS7003;41397;49.972;18.944;2022-10-26T04:10:37;40;33;21
55549;PMS7003;41397;49.972;18.944;2022-10-26T04:13:38;39;32;21
55549;PMS7003;41397;49.972;18.944;2022-10-26T04:16:39;35;30;21
55549;PMS7003;41397;49.972;18.944;2022-10-26T04:19:41;36;32;20
55549;PMS7003;41397;49.972;18.944;2022-10-26T04:22:45;35;30;20
55549;PMS7003;41397;49.972;18.944;2022-10-26T04:25:46;36;32;20
55549;PMS7003;41397;49.972;18.944;2022-10-26T04:28:48;35;30;21
55549;PMS7003;41397;49.972;18.944;2022-10-26T04:31:49;29;26;16
55549;PMS7003;41397;49.972;18.944;2022-10-26T04:34:53;43;34;22
55549;PMS7003;41397;49.972;18.944;2022-10-26T04:38:01;31;28;20
55549;PMS7003;41397;49.972;18.944;2022-10-26T04:41:04;40;34;22
55549;PMS7003;41397;49.972;18.944;2022-10-26T04:44:05;49;36;24
55549;PMS7003;41397;49.972;18.944;2022-10-26T04:47:06;45;36;22
55549;PMS7003;41397;49.972;18.944;2022-10-26T04:50:08;40;33;22
55549;PMS7003;41397;49.972;18.944;2022-10-26T04:53:11;48;38;25
55549;PMS7003;41397;49.972;18.944;2022-10-26T04:56:12;42;36;24
55549;PMS7003;41397;49.972;18.944;2022-10-26T04:59:14;44;37;24
55549;PMS7003;41397;49.972;18.944;2022-10-26T05:02:15;48;40;27
55549;PMS7003;41397;49.972;18.944;2022-10-26T05:05:16;43;36;24
55549;PMS7003;41397;49.972;18.944;2022-10-26T05:08:18;42;36;25
55549;PMS7003;41397;49.972;18.944;2022-10-26T05:11:19;59;49;28
55549;PMS7003;41397;49.972;18.944;2022-10-26T05:14:20;56;49;33
55549;PMS7003;41397;49.972;18.944;2022-10-26T05:17:21;41;35;26
55549;PMS7003;41397;49.972;18.944;2022-10-26T05:20:23;41;35;23
55549;PMS7003;41397;49.972;18.944;2022-10-26T05:23:30;45;37;23
55549;PMS7003;41397;49.972;18.944;2022-10-26T05:26:32;46;38;24
55549;PMS7003;41397;49.972;18.944;2022-10-26T05:29:33;41;34;23
55549;PMS7003;41397;49.972;18.944;2022-10-26T05:32:35;52;43;27
55549;PMS7003;41397;49.972;18.944;2022-10-26T05:35:36;50;41;26
55549;PMS7003;41397;49.972;18.944;2022-10-26T05:38:38;46;38;26
55549;PMS7003;41397;49.972;18.944;2022-10-26T05:41:40;55;46;33
55549;PMS7003;41397;49.972;18.944;2022-10-26T05:44:41;54;46;29
55549;PMS7003;41397;49.972;18.944;2022-10-26T05:47:43;49;40;28
55549;PMS7003;41397;49.972;18.944;2022-10-26T05:50:45;56;47;27
55549;PMS7003;41397;49.972;18.944;2022-10-26T05:53:46;51;41;26
55549;PMS7003;41397;49.972;18.944;2022-10-26T05:56:49;50;42;29
55549;PMS7003;41397;49.972;18.944;2022-10-26T05:59:51;56;50;32
55549;PMS7003;41397;49.972;18.944;2022-10-26T06:06:05;53;44;29
55549;PMS7003;41397;49.972;18.944;2022-10-26T06:09:10;58;50;29
55549;PMS7003;41397;49.972;18.944;2022-10-26T06:12:13;55;48;30
55549;PMS7003;41397;49.972;18.944;2022-10-26T06:15:20;58;47;30
55549;PMS7003;41397;49.972;18.944;2022-10-26T06:21:39;54;46;32
55549;PMS7003;41397;49.972;18.944;2022-10-26T06:31:12;55;44;28
55549;PMS7003;41397;49.972;18.944;2022-10-26T06:34:16;48;38;25
55549;PMS7003;41397;49.972;18.944;2022-10-26T06:37:26;50;40;26
55549;PMS7003;41397;49.972;18.944;2022-10-26T06:40:31;46;38;25
55549;PMS7003;41397;49.972;18.944;2022-10-26T06:43:35;53;41;28
55549;PMS7003;41397;49.972;18.944;2022-10-26T06:56:14;43;37;24
55549;PMS7003;41397;49.972;18.944;2022-10-26T06:59:24;33;30;21
55549;PMS7003;41397;49.972;18.944;2022-10-26T07:02:31;29;28;18
55549;PMS7003;41397;49.972;18.944;2022-10-26T07:05:33;33;30;20
55549;PMS7003;41397;49.972;18.944;2022-10-26T07:08:34;26;26;18
55549;PMS7003;41397;49.972;18.944;2022-10-26T07:11:35;25;25;19
55549;PMS7003;41397;49.972;18.944;2022-10-26T07:14:36;24;22;16
55549;PMS7003;41397;49.972;18.944;2022-10-26T07:17:41;19;19;14
55549;PMS7003;41397;49.972;18.944;2022-10-26T07:20:48;15;15;12
55549;PMS7003;41397;49.972;18.944;2022-10-26T07:23:53;10;10;7
55549;PMS7003;41397;49.972;18.944;2022-10-26T07:26:57;10;10;10
55549;PMS7003;41397;49.972;18.944;2022-10-26T07:29:58;8;8;7
55549;PMS7003;41397;49.972;18.944;2022-10-26T07:33:00;10;10;7
55549;PMS7003;41397;49.972;18.944;2022-10-26T07:36:02;9;9;7
55549;PMS7003;41397;49.972;18.944;2022-10-26T07:39:04;8;8;7
55549;PMS7003;41397;49.972;18.944;2022-10-26T07:42:06;8;8;6
55549;PMS7003;41397;49.972;18.944;2022-10-26T07:45:09;22;22;13
55549;PMS7003;41397;49.972;18.944;2022-10-26T07:48:10;10;10;7
55549;PMS7003;41397;49.972;18.944;2022-10-26T07:51:12;7;7;7
55549;PMS7003;41397;49.972;18.944;2022-10-26T07:54:13;8;8;5
55549;PMS7003;41397;49.972;18.944;2022-10-26T07:57:15;10;10;6
55549;PMS7003;41397;49.972;18.944;2022-10-26T08:00:17;6;6;5
55549;PMS7003;41397;49.972;18.944;2022-10-26T08:03:19;6;6;6
55549;PMS7003;41397;49.972;18.944;2022-10-26T08:06:21;6;6;6
55549;PMS7003;41397;49.972;18.944;2022-10-26T08:09:23;7;7;6
55549;PMS7003;41397;49.972;18.944;2022-10-26T08:12:25;9;9;6
55549;PMS7003;41397;49.972;18.944;2022-10-26T08:15:28;7;7;4
55549;PMS7003;41397;49.972;18.944;2022-10-26T08:18:30;13;13;10
55549;PMS7003;41397;49.972;18.944;2022-10-26T08:21:32;6;6;4
55549;PMS7003;41397;49.972;18.944;2022-10-26T08:24:33;7;7;6
55549;PMS7003;41397;49.972;18.944;2022-10-26T08:27:34;8;8;7
55549;PMS7003;41397;49.972;18.944;2022-10-26T08:30:36;7;7;5
55549;PMS7003;41397;49.972;18.944;2022-10-26T08:33:37;8;8;6
55549;PMS7003;41397;49.972;18.944;2022-10-26T08:36:40;10;10;7
55549;PMS7003;41397;49.972;18.944;2022-10-26T08:39:41;6;6;3
55549;PMS7003;41397;49.972;18.944;2022-10-26T08:42:43;10;10;8
55549;PMS7003;41397;49.972;18.944;2022-10-26T08:52:21;5;5;4
55549;PMS7003;41397;49.972;18.944;2022-10-26T08:55:38;7;7;4
55549;PMS7003;41397;49.972;18.944;2022-10-26T09:02:02;35;31;25
55549;PMS7003;41397;49.972;18.944;2022-10-26T09:05:05;46;40;32
55549;PMS7003;41397;49.972;18.944;2022-10-26T09:08:59;38;33;27
55549;PMS7003;41397;49.972;18.944;2022-10-26T09:14:54;42;36;31
55549;PMS7003;41397;49.972;18.944;2022-10-26T09:24:33;48;41;35
55549;PMS7003;41397;49.972;18.944;2022-10-26T09:27:40;46;39;34
55549;PMS7003;41397;49.972;18.944;2022-10-26T09:30:45;43;37;30
55549;PMS7003;41397;49.972;18.944;2022-10-26T09:33:48;43;37;31
55549;PMS7003;41397;49.972;18.944;2022-10-26T09:36:52;44;38;31
55549;PMS7003;41397;49.972;18.944;2022-10-26T09:40:16;37;33;27
55549;PMS7003;41397;49.972;18.944;2022-10-26T09:46:25;49;41;39
55549;PMS7003;41397;49.972;18.944;2022-10-26T09:52:48;37;33;27
55549;PMS7003;41397;49.972;18.944;2022-10-26T09:55:58;48;41;33
55549;PMS7003;41397;49.972;18.944;2022-10-26T09:59:03;3;3;3
55549;PMS7003;41397;49.972;18.944;2022-10-26T10:08:32;6;6;5
55549;PMS7003;41397;49.972;18.944;2022-10-26T10:11:37;6;6;4
55549;PMS7003;41397;49.972;18.944;2022-10-26T10:17:57;6;6;6
55549;PMS7003;41397;49.972;18.944;2022-10-26T10:20:59;5;5;5
55549;PMS7003;41397;49.972;18.944;2022-10-26T10:24:02;5;5;5
55549;PMS7003;41397;49.972;18.944;2022-10-26T10:27:17;2;2;2
55549;PMS7003;41397;49.972;18.944;2022-10-26T10:30:20;5;5;3
55549;PMS7003;41397;49.972;18.944;2022-10-26T10:33:23;3;3;2
55549;PMS7003;41397;49.972;18.944;2022-10-26T10:36:37;4;4;3
55549;PMS7003;41397;49.972;18.944;2022-10-26T10:39:40;3;3;2
55549;PMS7003;41397;49.972;18.944;2022-10-26T10:42:42;2;2;1
55549;PMS7003;41397;49.972;18.944;2022-10-26T10:45:48;4;4;3
55549;PMS7003;41397;49.972;18.944;2022-10-26T10:48:53;4;4;3
55549;PMS7003;41397;49.972;18.944;2022-10-26T10:52:02;5;5;3
55549;PMS7003;41397;49.972;18.944;2022-10-26T10:58:22;3;3;3
55549;PMS7003;41397;49.972;18.944;2022-10-26T11:01:30;4;4;3
55549;PMS7003;41397;49.972;18.944;2022-10-26T11:07:53;6;6;5
55549;PMS7003;41397;49.972;18.944;2022-10-26T11:17:31;6;6;5
55549;PMS7003;41397;49.972;18.944;2022-10-26T11:20:45;5;5;3
55549;PMS7003;41397;49.972;18.944;2022-10-26T11:23:54;4;4;4
55549;PMS7003;41397;49.972;18.944;2022-10-26T11:27:11;3;3;2
55549;PMS7003;41397;49.972;18.944;2022-10-26T11:30:21;4;4;3
55549;PMS7003;41397;49.972;18.944;2022-10-26T11:33:34;7;7;5
55549;PMS7003;41397;49.972;18.944;2022-10-26T11:36:41;4;4;4
55549;PMS7003;41397;49.972;18.944;2022-10-26T11:39:56;6;6;4
55549;PMS7003;41397;49.972;18.944;2022-10-26T11:43:04;3;3;3
55549;PMS7003;41397;49.972;18.944;2022-10-26T11:46:15;4;4;4
55549;PMS7003;41397;49.972;18.944;2022-10-26T11:55:51;3;3;2
55549;PMS7003;41397;49.972;18.944;2022-10-26T11:58:54;3;3;3
55549;PMS7003;41397;49.972;18.944;2022-10-26T12:02:01;0;0;0
55549;PMS7003;41397;49.972;18.944;2022-10-26T12:14:58;0;0;0
55549;PMS7003;41397;49.972;18.944;2022-10-26T12:21:19;1;1;0
55549;PMS7003;41397;49.972;18.944;2022-10-26T12:30:45;0;0;0
55549;PMS7003;41397;49.972;18.944;2022-10-26T12:33:49;2;2;2
55549;PMS7003;41397;49.972;18.944;2022-10-26T12:46:38;2;2;1
55549;PMS7003;41397;49.972;18.944;2022-10-26T12:52:55;1;1;1
55549;PMS7003;41397;49.972;18.944;2022-10-26T12:56:04;3;3;2
55549;PMS7003;41397;49.972;18.944;2022-10-26T12:59:19;3;3;2
55549;PMS7003;41397;49.972;18.944;2022-10-26T13:08:54;0;0;0
55549;PMS7003;41397;49.972;18.944;2022-10-26T13:11:57;5;5;4
55549;PMS7003;41397;49.972;18.944;2022-10-26T13:15:03;3;3;1
55549;PMS7003;41397;49.972;18.944;2022-10-26T13:18:13;2;2;2
55549;PMS7003;41397;49.972;18.944;2022-10-26T13:21:21;2;2;2
55549;PMS7003;41397;49.972;18.944;2022-10-26T13:24:26;3;3;3
55549;PMS7003;41397;49.972;18.944;2022-10-26T13:27:39;3;3;3
55549;PMS7003;41397;49.972;18.944;2022-10-26T13:30:43;0;0;0
55549;PMS7003;41397;49.972;18.944;2022-10-26T13:33:46;1;1;1
55549;PMS7003;41397;49.972;18.944;2022-10-26T13:36:55;0;0;0
55549;PMS7003;41397;49.972;18.944;2022-10-26T13:40:04;2;2;2
55549;PMS7003;41397;49.972;18.944;2022-10-26T13:43:10;3;3;2
55549;PMS7003;41397;49.972;18.944;2022-10-26T13:46:25;0;0;0
55549;PMS7003;41397;49.972;18.944;2022-10-26T13:49:45;0;0;0
55549;PMS7003;41397;49.972;18.944;2022-10-26T13:52:40;2;2;2
55549;PMS7003;41397;49.972;18.944;2022-10-26T13:58:56;3;3;2
55549;PMS7003;41397;49.972;18.944;2022-10-26T14:05:18;3;3;3
55549;PMS7003;41397;49.972;18.944;2022-10-26T14:08:21;3;3;2
55549;PMS7003;41397;49.972;18.944;2022-10-26T14:11:27;1;1;1
55549;PMS7003;41397;49.972;18.944;2022-10-26T14:14:36;1;1;1
55549;PMS7003;41397;49.972;18.944;2022-10-26T14:17:39;5;5;4
55549;PMS7003;41397;49.972;18.944;2022-10-26T14:20:41;5;5;4
55549;PMS7003;41397;49.972;18.944;2022-10-26T14:23:57;1;1;1
55549;PMS7003;41397;49.972;18.944;2022-10-26T14:30:27;3;3;2
55549;PMS7003;41397;49.972;18.944;2022-10-26T14:33:28;4;4;3
55549;PMS7003;41397;49.972;18.944;2022-10-26T14:36:31;5;5;3
55549;PMS7003;41397;49.972;18.944;2022-10-26T14:39:40;2;2;2
55549;PMS7003;41397;49.972;18.944;2022-10-26T14:42:44;2;2;2
55549;PMS7003;41397;49.972;18.944;2022-10-26T14:45:50;2;2;2
55549;PMS7003;41397;49.972;18.944;2022-10-26T14:48:56;1;1;0
55549;PMS7003;41397;49.972;18.944;2022-10-26T14:52:03;2;2;1
55549;PMS7003;41397;49.972;18.944;2022-10-26T14:55:13;1;1;1
55549;PMS7003;41397;49.972;18.944;2022-10-26T15:01:28;1;1;1
55549;PMS7003;41397;49.972;18.944;2022-10-26T15:04:35;3;3;3
55549;PMS7003;41397;49.972;18.944;2022-10-26T15:07:38;3;3;1
55549;PMS7003;41397;49.972;18.944;2022-10-26T15:10:44;1;1;1
55549;PMS7003;41397;49.972;18.944;2022-10-26T15:13:47;2;2;2
55549;PMS7003;41397;49.972;18.944;2022-10-26T15:16:54;3;3;3
55549;PMS7003;41397;49.972;18.944;2022-10-26T15:20:00;3;3;3
55549;PMS7003;41397;49.972;18.944;2022-10-26T15:23:05;9;9;6
55549;PMS7003;41397;49.972;18.944;2022-10-26T15:26:11;12;12;10
55549;PMS7003;41397;49.972;18.944;2022-10-26T15:32:30;7;7;6
55549;PMS7003;41397;49.972;18.944;2022-10-26T15:35:33;9;9;6
55549;PMS7003;41397;49.972;18.944;2022-10-26T15:38:34;20;16;12
55549;PMS7003;41397;49.972;18.944;2022-10-26T15:41:43;11;11;10
55549;PMS7003;41397;49.972;18.944;2022-10-26T15:44:46;9;9;7
55549;PMS7003;41397;49.972;18.944;2022-10-26T15:47:52;10;10;9
55549;PMS7003;41397;49.972;18.944;2022-10-26T15:50:56;21;11;8
55549;PMS7003;41397;49.972;18.944;2022-10-26T15:53:58;15;12;9
55549;PMS7003;41397;49.972;18.944;2022-10-26T15:57:07;8;8;4
55549;PMS7003;41397;49.972;18.944;2022-10-26T16:00:14;10;10;8
55549;PMS7003;41397;49.972;18.944;2022-10-26T16:03:20;10;10;9
55549;PMS7003;41397;49.972;18.944;2022-10-26T16:06:25;15;13;10
55549;PMS7003;41397;49.972;18.944;2022-10-26T16:09:32;19;19;11
55549;PMS7003;41397;49.972;18.944;2022-10-26T16:12:33;22;22;17
55549;PMS7003;41397;49.972;18.944;2022-10-26T16:15:34;22;22;16
55549;PMS7003;41397;49.972;18.944;2022-10-26T16:18:37;13;13;10
55549;PMS7003;41397;49.972;18.944;2022-10-26T16:21:38;16;16;12
55549;PMS7003;41397;49.972;18.944;2022-10-26T16:24:41;18;18;15
55549;PMS7003;41397;49.972;18.944;2022-10-26T16:27:42;29;25;17
55549;PMS7003;41397;49.972;18.944;2022-10-26T16:30:44;28;26;17
55549;PMS7003;41397;49.972;18.944;2022-10-26T16:33:46;39;34;23
55549;PMS7003;41397;49.972;18.944;2022-10-26T16:36:48;40;35;22
55549;PMS7003;41397;49.972;18.944;2022-10-26T16:39:49;31;29;22
55549;PMS7003;41397;49.972;18.944;2022-10-26T16:42:51;36;31;21
55549;PMS7003;41397;49.972;18.944;2022-10-26T16:45:52;46;38;26
55549;PMS7003;41397;49.972;18.944;2022-10-26T16:48:56;43;37;22
55549;PMS7003;41397;49.972;18.944;2022-10-26T16:51:59;35;31;21
55549;PMS7003;41397;49.972;18.944;2022-10-26T16:55:01;40;34;23
55549;PMS7003;41397;49.972;18.944;2022-10-26T16:58:03;44;38;25
55549;PMS7003;41397;49.972;18.944;2022-10-26T17:01:05;49;40;27
55549;PMS7003;41397;49.972;18.944;2022-10-26T17:04:12;49;41;27
55549;PMS7003;41397;49.972;18.944;2022-10-26T17:07:16;57;43;27
55549;PMS7003;41397;49.972;18.944;2022-10-26T17:10:20;66;60;39
55549;PMS7003;41397;49.972;18.944;2022-10-26T17:13:22;60;52;33
55549;PMS7003;41397;49.972;18.944;2022-10-26T17:16:32;77;70;46
55549;PMS7003;41397;49.972;18.944;2022-10-26T17:19:37;81;79;52
55549;PMS7003;41397;49.972;18.944;2022-10-26T17:22:38;90;89;55
55549;PMS7003;41397;49.972;18.944;2022-10-26T17:25:40;91;80;51
55549;PMS7003;41397;49.972;18.944;2022-10-26T17:28:41;86;85;50
55549;PMS7003;41397;49.972;18.944;2022-10-26T17:31:45;75;73;44
55549;PMS7003;41397;49.972;18.944;2022-10-26T17:34:52;85;70;45
55549;PMS7003;41397;49.972;18.944;2022-10-26T17:37:54;71;66;44
55549;PMS7003;41397;49.972;18.944;2022-10-26T17:41:04;68;59;38
55549;PMS7003;41397;49.972;18.944;2022-10-26T17:44:11;68;64;36
55549;PMS7003;41397;49.972;18.944;2022-10-26T17:47:12;67;63;39
55549;PMS7003;41397;49.972;18.944;2022-10-26T17:50:13;62;56;36
55549;PMS7003;41397;49.972;18.944;2022-10-26T17:53:14;62;57;37
55549;PMS7003;41397;49.972;18.944;2022-10-26T17:59:24;65;58;37
55549;PMS7003;41397;49.972;18.944;2022-10-26T18:02:26;64;59;38
55549;PMS7003;41397;49.972;18.944;2022-10-26T18:05:31;66;61;34
55549;PMS7003;41397;49.972;18.944;2022-10-26T18:18:42;61;51;37
55549;PMS7003;41397;49.972;18.944;2022-10-26T18:21:53;63;58;37
55549;PMS7003;41397;49.972;18.944;2022-10-26T18:24:54;60;52;32
55549;PMS7003;41397;49.972;18.944;2022-10-26T18:27:56;62;53;33
55549;PMS7003;41397;49.972;18.944;2022-10-26T18:31:01;52;44;28
55549;PMS7003;41397;49.972;18.944;2022-10-26T18:34:04;49;41;26
55549;PMS7003;41397;49.972;18.944;2022-10-26T18:37:23;58;50;32
55549;PMS7003;41397;49.972;18.944;2022-10-26T18:40:33;56;46;31
55549;PMS7003;41397;49.972;18.944;2022-10-26T18:43:37;56;47;30
55549;PMS7003;41397;49.972;18.944;2022-10-26T18:47:00;56;48;29
55549;PMS7003;41397;49.972;18.944;2022-10-26T18:50:07;54;44;27
55549;PMS7003;41397;49.972;18.944;2022-10-26T18:53:17;53;44;28
55549;PMS7003;41397;49.972;18.944;2022-10-26T18:56:21;56;47;29
55549;PMS7003;41397;49.972;18.944;2022-10-26T18:59:29;58;48;30
55549;PMS7003;41397;49.972;18.944;2022-10-26T19:02:30;58;50;29
55549;PMS7003;41397;49.972;18.944;2022-10-26T19:05:37;61;50;34
55549;PMS7003;41397;49.972;18.944;2022-10-26T19:08:40;57;47;29
55549;PMS7003;41397;49.972;18.944;2022-10-26T19:11:43;55;44;28
55549;PMS7003;41397;49.972;18.944;2022-10-26T19:14:45;56;47;29
55549;PMS7003;41397;49.972;18.944;2022-10-26T19:17:46;71;63;36
55549;PMS7003;41397;49.972;18.944;2022-10-26T19:20:48;64;57;32
55549;PMS7003;41397;49.972;18.944;2022-10-26T19:23:50;65;55;37
55549;PMS7003;41397;49.972;18.944;2022-10-26T19:26:53;84;75;46
55549;PMS7003;41397;49.972;18.944;2022-10-26T19:32:33;73;72;44
55549;PMS7003;41397;49.972;18.944;2022-10-26T19:35:45;71;65;43
55549;PMS7003;41397;49.972;18.944;2022-10-26T19:38:47;83;73;43
55549;PMS7003;41397;49.972;18.944;2022-10-26T19:41:48;89;86;51
55549;PMS7003;41397;49.972;18.944;2022-10-26T19:44:54;80;78;45
55549;PMS7003;41397;49.972;18.944;2022-10-26T19:48:22;114;101;64
55549;PMS7003;41397;49.972;18.944;2022-10-26T19:51:43;91;90;59
55549;PMS7003;41397;49.972;18.944;2022-10-26T19:54:49;76;71;45
55549;PMS7003;41397;49.972;18.944;2022-10-26T20:01:42;96;85;53
55549;PMS7003;41397;49.972;18.944;2022-10-26T20:04:52;57;42;30
55549;PMS7003;41397;49.972;18.944;2022-10-26T20:07:56;82;80;51
55549;PMS7003;41397;49.972;18.944;2022-10-26T20:11:00;75;72;44
55549;PMS7003;41397;49.972;18.944;2022-10-26T20:14:02;78;76;47
55549;PMS7003;41397;49.972;18.944;2022-10-26T20:17:06;110;93;56
55549;PMS7003;41397;49.972;18.944;2022-10-26T20:23:21;72;72;43
55549;PMS7003;41397;49.972;18.944;2022-10-26T20:26:22;81;78;43
55549;PMS7003;41397;49.972;18.944;2022-10-26T20:29:23;86;69;38
55549;PMS7003;41397;49.972;18.944;2022-10-26T20:32:24;72;71;42
55549;PMS7003;41397;49.972;18.944;2022-10-26T20:35:26;68;62;39
55549;PMS7003;41397;49.972;18.944;2022-10-26T20:38:29;64;59;36
55549;PMS7003;41397;49.972;18.944;2022-10-26T20:41:31;61;55;33
55549;PMS7003;41397;49.972;18.944;2022-10-26T20:44:36;76;64;40
55549;PMS7003;41397;49.972;18.944;2022-10-26T20:47:45;68;60;36
55549;PMS7003;41397;49.972;18.944;2022-10-26T20:50:53;77;72;38
55549;PMS7003;41397;49.972;18.944;2022-10-26T20:54:20;65;61;38
55549;PMS7003;41397;49.972;18.944;2022-10-26T20:57:51;62;56;30
55549;PMS7003;41397;49.972;18.944;2022-10-26T21:00:58;62;57;34
55549;PMS7003;41397;49.972;18.944;2022-10-26T21:04:02;58;51;34
55549;PMS7003;41397;49.972;18.944;2022-10-26T21:07:10;63;55;35
55549;PMS7003;41397;49.972;18.944;2022-10-26T21:10:11;62;57;34
55549;PMS7003;41397;49.972;18.944;2022-10-26T21:13:13;62;54;28
55549;PMS7003;41397;49.972;18.944;2022-10-26T21:16:15;54;46;29
55549;PMS7003;41397;49.972;18.944;2022-10-26T21:19:18;60;53;28
55549;PMS7003;41397;49.972;18.944;2022-10-26T21:22:19;54;45;30
55549;PMS7003;41397;49.972;18.944;2022-10-26T21:25:21;54;46;28
55549;PMS7003;41397;49.972;18.944;2022-10-26T21:28:22;32;28;8
55549;PMS7003;41397;49.972;18.944;2022-10-26T21:31:32;50;39;26
55549;PMS7003;41397;49.972;18.944;2022-10-26T21:34:33;49;40;27
55549;PMS7003;41397;49.972;18.944;2022-10-26T21:37:34;61;54;33
55549;PMS7003;41397;49.972;18.944;2022-10-26T21:40:40;63;50;32
55549;PMS7003;41397;49.972;18.944;2022-10-26T21:43:42;61;55;32
55549;PMS7003;41397;49.972;18.944;2022-10-26T21:46:53;62;56;37
55549;PMS7003;41397;49.972;18.944;2022-10-26T21:49:54;64;61;42
55549;PMS7003;41397;49.972;18.944;2022-10-26T21:52:55;68;65;42
55549;PMS7003;41397;49.972;18.944;2022-10-26T21:56:00;62;56;39
55549;PMS7003;41397;49.972;18.944;2022-10-26T21:59:09;66;63;40
55549;PMS7003;41397;49.972;18.944;2022-10-26T22:02:10;61;55;38
55549;PMS7003;41397;49.972;18.944;2022-10-26T22:05:11;57;47;30
55549;PMS7003;41397;49.972;18.944;2022-10-26T22:08:12;63;56;35
55549;PMS7003;41397;49.972;18.944;2022-10-26T22:11:18;62;54;39
55549;PMS7003;41397;49.972;18.944;2022-10-26T22:14:27;73;55;31
55549;PMS7003;41397;49.972;18.944;2022-10-26T22:17:28;59;52;29
55549;PMS7003;41397;49.972;18.944;2022-10-26T22:20:30;59;53;33
55549;PMS7003;41397;49.972;18.944;2022-10-26T22:23:34;66;59;37
55549;PMS7003;41397;49.972;18.944;2022-10-26T22:26:38;64;57;33
55549;PMS7003;41397;49.972;18.944;2022-10-26T22:29:39;59;52;33
55549;PMS7003;41397;49.972;18.944;2022-10-26T22:32:40;70;64;36
55549;PMS7003;41397;49.972;18.944;2022-10-26T22:35:42;67;59;35
55549;PMS7003;41397;49.972;18.944;2022-10-26T22:38:44;65;51;35
55549;PMS7003;41397;49.972;18.944;2022-10-26T22:41:46;68;64;42
55549;PMS7003;41397;49.972;18.944;2022-10-26T22:44:48;65;62;33
55549;PMS7003;41397;49.972;18.944;2022-10-26T22:47:51;67;63;32
55549;PMS7003;41397;49.972;18.944;2022-10-26T22:50:52;61;55;31
55549;PMS7003;41397;49.972;18.944;2022-10-26T22:53:54;63;54;33